sensor_id;sensor_type;location;lat;lon;timestamp;P1;durP1;ratioP1;P2;durP2;ratioP2
30888;SDS011;51092;50.874;7.024;2022-10-16T00:00:24;1.20;;;1.10;;
30888;SDS011;51092;50.874;7.024;2022-10-16T00:01:26;11.15;;;1.63;;
30888;SDS011;51092;50.874;7.024;2022-10-16T00:02:32;1.00;;;0.90;;
30888;SDS011;51092;50.874;7.024;2022-10-16T00:03:33;3.30;;;0.80;;
30888;SDS011;51092;50.874;7.024;2022-10-16T00:04:36;2.58;;;1.00;;
30888;SDS011;51092;50.874;7.024;2022-10-16T00:05:38;1.30;;;0.75;;
30888;SDS011;51092;50.874;7.024;2022-10-16T00:06:41;0.85;;;0.60;;
30888;SDS011;51092;50.874;7.024;2022-10-16T00:07:43;4.88;;;0.60;;
30888;SDS011;51092;50.874;7.024;2022-10-16T00:08:46;3.22;;;0.90;;
30888;SDS011;51092;50.874;7.024;2022-10-16T00:09:48;3.25;;;0.88;;
30888;SDS011;51092;50.874;7.024;2022-10-16T00:10:50;3.22;;;1.00;;
30888;SDS011;51092;50.874;7.024;2022-10-16T00:11:52;3.17;;;1.05;;
30888;SDS011;51092;50.874;7.024;2022-10-16T00:12:55;1.08;;;0.70;;
30888;SDS011;51092;50.874;7.024;2022-10-16T00:13:57;1.27;;;0.80;;
30888;SDS011;51092;50.874;7.024;2022-10-16T00:15:01;2.88;;;0.52;;
30888;SDS011;51092;50.874;7.024;2022-10-16T00:16:03;4.65;;;0.80;;
30888;SDS011;51092;50.874;7.024;2022-10-16T00:17:05;1.48;;;0.70;;
30888;SDS011;51092;50.874;7.024;2022-10-16T00:18:07;1.35;;;0.75;;
30888;SDS011;51092;50.874;7.024;2022-10-16T00:19:10;8.02;;;0.70;;
30888;SDS011;51092;50.874;7.024;2022-10-16T00:20:13;1.42;;;0.80;;
30888;SDS011;51092;50.874;7.024;2022-10-16T00:21:16;0.73;;;0.70;;
30888;SDS011;51092;50.874;7.024;2022-10-16T00:22:20;3.35;;;1.00;;
30888;SDS011;51092;50.874;7.024;2022-10-16T00:23:22;0.77;;;0.68;;
30888;SDS011;51092;50.874;7.024;2022-10-16T00:24:24;3.20;;;0.80;;
30888;SDS011;51092;50.874;7.024;2022-10-16T00:25:26;2.38;;;0.77;;
30888;SDS011;51092;50.874;7.024;2022-10-16T00:26:29;0.90;;;0.68;;
30888;SDS011;51092;50.874;7.024;2022-10-16T00:27:32;4.05;;;0.85;;
30888;SDS011;51092;50.874;7.024;2022-10-16T00:28:35;1.58;;;0.75;;
30888;SDS011;51092;50.874;7.024;2022-10-16T00:29:37;1.30;;;0.77;;
30888;SDS011;51092;50.874;7.024;2022-10-16T00:30:39;1.23;;;0.90;;
30888;SDS011;51092;50.874;7.024;2022-10-16T00:31:41;1.52;;;1.00;;
30888;SDS011;51092;50.874;7.024;2022-10-16T00:32:43;0.88;;;0.82;;
30888;SDS011;51092;50.874;7.024;2022-10-16T00:33:46;1.60;;;0.82;;
30888;SDS011;51092;50.874;7.024;2022-10-16T00:34:49;2.15;;;1.27;;
30888;SDS011;51092;50.874;7.024;2022-10-16T00:35:50;1.40;;;1.02;;
30888;SDS011;51092;50.874;7.024;2022-10-16T00:36:53;1.58;;;0.98;;
30888;SDS011;51092;50.874;7.024;2022-10-16T00:37:54;1.17;;;0.80;;
30888;SDS011;51092;50.874;7.024;2022-10-16T00:38:57;1.23;;;0.80;;
30888;SDS011;51092;50.874;7.024;2022-10-16T00:40:01;2.53;;;0.90;;
30888;SDS011;51092;50.874;7.024;2022-10-16T00:41:04;0.93;;;0.65;;
30888;SDS011;51092;50.874;7.024;2022-10-16T00:42:06;1.45;;;1.08;;
30888;SDS011;51092;50.874;7.024;2022-10-16T00:43:11;0.88;;;0.60;;
30888;SDS011;51092;50.874;7.024;2022-10-16T00:45:44;1.20;;;0.73;;
30888;SDS011;51092;50.874;7.024;2022-10-16T00:46:46;2.85;;;0.77;;
30888;SDS011;51092;50.874;7.024;2022-10-16T00:47:48;2.55;;;1.30;;
30888;SDS011;51092;50.874;7.024;2022-10-16T00:48:55;0.80;;;0.73;;
30888;SDS011;51092;50.874;7.024;2022-10-16T00:50:02;1.88;;;1.00;;
30888;SDS011;51092;50.874;7.024;2022-10-16T00:51:07;0.98;;;0.57;;
30888;SDS011;51092;50.874;7.024;2022-10-16T00:52:09;2.08;;;0.73;;
30888;SDS011;51092;50.874;7.024;2022-10-16T00:53:11;0.73;;;0.68;;
30888;SDS011;51092;50.874;7.024;2022-10-16T00:54:14;2.72;;;1.00;;
30888;SDS011;51092;50.874;7.024;2022-10-16T00:55:18;1.33;;;0.98;;
30888;SDS011;51092;50.874;7.024;2022-10-16T00:56:21;1.00;;;0.80;;
30888;SDS011;51092;50.874;7.024;2022-10-16T00:57:23;3.30;;;0.80;;
30888;SDS011;51092;50.874;7.024;2022-10-16T00:58:26;4.05;;;1.13;;
30888;SDS011;51092;50.874;7.024;2022-10-16T00:59:28;4.90;;;1.55;;
30888;SDS011;51092;50.874;7.024;2022-10-16T01:00:32;0.98;;;0.80;;
30888;SDS011;51092;50.874;7.024;2022-10-16T01:01:34;2.67;;;0.98;;
30888;SDS011;51092;50.874;7.024;2022-10-16T01:02:36;2.03;;;0.85;;
30888;SDS011;51092;50.874;7.024;2022-10-16T01:03:38;2.63;;;1.20;;
30888;SDS011;51092;50.874;7.024;2022-10-16T01:04:43;6.32;;;1.30;;
30888;SDS011;51092;50.874;7.024;2022-10-16T01:05:48;0.88;;;0.88;;
30888;SDS011;51092;50.874;7.024;2022-10-16T01:06:59;2.35;;;0.90;;
30888;SDS011;51092;50.874;7.024;2022-10-16T01:08:08;3.03;;;0.80;;
30888;SDS011;51092;50.874;7.024;2022-10-16T01:09:16;1.00;;;0.90;;
30888;SDS011;51092;50.874;7.024;2022-10-16T01:10:24;1.98;;;0.90;;
30888;SDS011;51092;50.874;7.024;2022-10-16T01:11:33;4.32;;;1.42;;
30888;SDS011;51092;50.874;7.024;2022-10-16T01:12:40;3.10;;;1.50;;
30888;SDS011;51092;50.874;7.024;2022-10-16T01:13:47;1.13;;;1.00;;
30888;SDS011;51092;50.874;7.024;2022-10-16T01:14:54;3.58;;;1.25;;
30888;SDS011;51092;50.874;7.024;2022-10-16T01:16:04;1.45;;;1.13;;
30888;SDS011;51092;50.874;7.024;2022-10-16T01:17:10;1.58;;;0.85;;
30888;SDS011;51092;50.874;7.024;2022-10-16T01:18:16;3.85;;;1.10;;
30888;SDS011;51092;50.874;7.024;2022-10-16T01:19:26;1.45;;;1.00;;
30888;SDS011;51092;50.874;7.024;2022-10-16T01:20:48;1.38;;;1.10;;
30888;SDS011;51092;50.874;7.024;2022-10-16T01:21:55;8.10;;;1.33;;
30888;SDS011;51092;50.874;7.024;2022-10-16T01:23:02;1.23;;;0.90;;
30888;SDS011;51092;50.874;7.024;2022-10-16T01:24:12;1.20;;;0.90;;
30888;SDS011;51092;50.874;7.024;2022-10-16T01:25:29;1.42;;;0.90;;
30888;SDS011;51092;50.874;7.024;2022-10-16T01:26:44;3.92;;;1.48;;
30888;SDS011;51092;50.874;7.024;2022-10-16T01:27:57;0.80;;;0.70;;
30888;SDS011;51092;50.874;7.024;2022-10-16T01:29:03;1.40;;;1.10;;
30888;SDS011;51092;50.874;7.024;2022-10-16T01:30:11;2.92;;;1.00;;
30888;SDS011;51092;50.874;7.024;2022-10-16T01:31:18;2.03;;;1.00;;
30888;SDS011;51092;50.874;7.024;2022-10-16T01:32:26;1.20;;;1.00;;
30888;SDS011;51092;50.874;7.024;2022-10-16T01:33:35;1.33;;;1.10;;
30888;SDS011;51092;50.874;7.024;2022-10-16T01:34:42;1.40;;;0.90;;
30888;SDS011;51092;50.874;7.024;2022-10-16T01:35:51;3.60;;;1.30;;
30888;SDS011;51092;50.874;7.024;2022-10-16T01:36:56;1.90;;;1.40;;
30888;SDS011;51092;50.874;7.024;2022-10-16T01:38:04;2.47;;;1.42;;
30888;SDS011;51092;50.874;7.024;2022-10-16T01:39:09;7.45;;;1.77;;
30888;SDS011;51092;50.874;7.024;2022-10-16T01:40:14;1.98;;;1.27;;
30888;SDS011;51092;50.874;7.024;2022-10-16T01:41:21;3.10;;;1.45;;
30888;SDS011;51092;50.874;7.024;2022-10-16T01:42:30;2.70;;;1.48;;
30888;SDS011;51092;50.874;7.024;2022-10-16T01:43:42;1.13;;;0.93;;
30888;SDS011;51092;50.874;7.024;2022-10-16T01:44:49;1.90;;;1.05;;
30888;SDS011;51092;50.874;7.024;2022-10-16T01:45:54;4.07;;;1.20;;
30888;SDS011;51092;50.874;7.024;2022-10-16T01:46:56;2.20;;;1.20;;
30888;SDS011;51092;50.874;7.024;2022-10-16T01:47:59;2.05;;;1.15;;
30888;SDS011;51092;50.874;7.024;2022-10-16T01:49:04;1.23;;;1.02;;
30888;SDS011;51092;50.874;7.024;2022-10-16T01:50:08;1.83;;;1.08;;
30888;SDS011;51092;50.874;7.024;2022-10-16T01:51:10;2.38;;;0.82;;
30888;SDS011;51092;50.874;7.024;2022-10-16T01:52:15;3.88;;;1.00;;
30888;SDS011;51092;50.874;7.024;2022-10-16T01:53:21;2.40;;;1.00;;
30888;SDS011;51092;50.874;7.024;2022-10-16T01:54:25;1.63;;;1.15;;
30888;SDS011;51092;50.874;7.024;2022-10-16T01:55:30;1.58;;;1.17;;
30888;SDS011;51092;50.874;7.024;2022-10-16T01:56:35;1.63;;;1.30;;
30888;SDS011;51092;50.874;7.024;2022-10-16T01:57:41;3.15;;;0.88;;
30888;SDS011;51092;50.874;7.024;2022-10-16T01:58:48;2.50;;;1.60;;
30888;SDS011;51092;50.874;7.024;2022-10-16T01:59:54;2.15;;;1.20;;
30888;SDS011;51092;50.874;7.024;2022-10-16T02:01:00;1.50;;;1.33;;
30888;SDS011;51092;50.874;7.024;2022-10-16T02:02:04;4.15;;;1.70;;
30888;SDS011;51092;50.874;7.024;2022-10-16T02:03:10;2.72;;;1.70;;
30888;SDS011;51092;50.874;7.024;2022-10-16T02:04:14;6.35;;;1.40;;
30888;SDS011;51092;50.874;7.024;2022-10-16T02:05:20;1.42;;;1.17;;
30888;SDS011;51092;50.874;7.024;2022-10-16T02:06:26;5.30;;;1.60;;
30888;SDS011;51092;50.874;7.024;2022-10-16T02:07:30;2.97;;;1.38;;
30888;SDS011;51092;50.874;7.024;2022-10-16T02:08:32;4.63;;;1.65;;
30888;SDS011;51092;50.874;7.024;2022-10-16T02:09:35;2.33;;;1.30;;
30888;SDS011;51092;50.874;7.024;2022-10-16T02:10:38;1.90;;;1.70;;
30888;SDS011;51092;50.874;7.024;2022-10-16T02:11:40;6.00;;;1.80;;
30888;SDS011;51092;50.874;7.024;2022-10-16T02:12:44;2.60;;;1.60;;
30888;SDS011;51092;50.874;7.024;2022-10-16T02:13:51;4.07;;;1.88;;
30888;SDS011;51092;50.874;7.024;2022-10-16T02:14:56;2.65;;;1.70;;
30888;SDS011;51092;50.874;7.024;2022-10-16T02:15:58;1.92;;;1.40;;
30888;SDS011;51092;50.874;7.024;2022-10-16T02:17:00;3.58;;;1.45;;
30888;SDS011;51092;50.874;7.024;2022-10-16T02:18:02;2.22;;;1.13;;
30888;SDS011;51092;50.874;7.024;2022-10-16T02:19:06;2.38;;;1.52;;
30888;SDS011;51092;50.874;7.024;2022-10-16T02:20:09;1.63;;;1.48;;
30888;SDS011;51092;50.874;7.024;2022-10-16T02:21:13;1.63;;;1.25;;
30888;SDS011;51092;50.874;7.024;2022-10-16T02:22:20;6.45;;;1.55;;
30888;SDS011;51092;50.874;7.024;2022-10-16T02:23:29;10.30;;;1.30;;
30888;SDS011;51092;50.874;7.024;2022-10-16T02:24:39;4.68;;;1.30;;
30888;SDS011;51092;50.874;7.024;2022-10-16T02:25:44;2.55;;;1.60;;
30888;SDS011;51092;50.874;7.024;2022-10-16T02:26:49;1.45;;;1.20;;
30888;SDS011;51092;50.874;7.024;2022-10-16T02:27:57;2.42;;;1.20;;
30888;SDS011;51092;50.874;7.024;2022-10-16T02:29:04;1.83;;;1.08;;
30888;SDS011;51092;50.874;7.024;2022-10-16T02:30:11;2.17;;;1.30;;
30888;SDS011;51092;50.874;7.024;2022-10-16T02:31:16;1.58;;;1.33;;
30888;SDS011;51092;50.874;7.024;2022-10-16T02:32:21;3.22;;;1.48;;
30888;SDS011;51092;50.874;7.024;2022-10-16T02:33:26;1.90;;;1.17;;
30888;SDS011;51092;50.874;7.024;2022-10-16T02:34:30;2.53;;;1.27;;
30888;SDS011;51092;50.874;7.024;2022-10-16T02:35:35;2.55;;;1.33;;
30888;SDS011;51092;50.874;7.024;2022-10-16T02:36:38;2.20;;;1.52;;
30888;SDS011;51092;50.874;7.024;2022-10-16T02:37:42;1.85;;;1.42;;
30888;SDS011;51092;50.874;7.024;2022-10-16T02:38:43;3.22;;;1.50;;
30888;SDS011;51092;50.874;7.024;2022-10-16T02:39:46;1.90;;;1.13;;
30888;SDS011;51092;50.874;7.024;2022-10-16T02:40:48;2.92;;;1.45;;
30888;SDS011;51092;50.874;7.024;2022-10-16T02:41:51;2.90;;;1.30;;
30888;SDS011;51092;50.874;7.024;2022-10-16T02:42:53;1.88;;;1.40;;
30888;SDS011;51092;50.874;7.024;2022-10-16T02:43:57;3.65;;;1.60;;
30888;SDS011;51092;50.874;7.024;2022-10-16T02:44:59;3.85;;;1.77;;
30888;SDS011;51092;50.874;7.024;2022-10-16T02:46:01;3.28;;;1.90;;
30888;SDS011;51092;50.874;7.024;2022-10-16T02:47:03;3.55;;;1.20;;
30888;SDS011;51092;50.874;7.024;2022-10-16T02:48:06;1.75;;;1.55;;
30888;SDS011;51092;50.874;7.024;2022-10-16T02:49:08;2.25;;;1.52;;
30888;SDS011;51092;50.874;7.024;2022-10-16T02:50:09;2.88;;;1.45;;
30888;SDS011;51092;50.874;7.024;2022-10-16T02:51:10;7.72;;;1.48;;
30888;SDS011;51092;50.874;7.024;2022-10-16T02:52:12;4.18;;;1.58;;
30888;SDS011;51092;50.874;7.024;2022-10-16T02:53:13;2.80;;;1.63;;
30888;SDS011;51092;50.874;7.024;2022-10-16T02:54:16;7.13;;;1.85;;
30888;SDS011;51092;50.874;7.024;2022-10-16T02:55:17;2.70;;;1.50;;
30888;SDS011;51092;50.874;7.024;2022-10-16T02:56:20;1.60;;;1.33;;
30888;SDS011;51092;50.874;7.024;2022-10-16T02:57:22;3.03;;;1.40;;
30888;SDS011;51092;50.874;7.024;2022-10-16T02:58:25;3.40;;;1.33;;
30888;SDS011;51092;50.874;7.024;2022-10-16T02:59:27;2.05;;;1.40;;
30888;SDS011;51092;50.874;7.024;2022-10-16T03:00:30;3.83;;;1.35;;
30888;SDS011;51092;50.874;7.024;2022-10-16T03:01:31;6.10;;;1.80;;
30888;SDS011;51092;50.874;7.024;2022-10-16T03:02:34;3.45;;;1.77;;
30888;SDS011;51092;50.874;7.024;2022-10-16T03:03:36;2.47;;;1.63;;
30888;SDS011;51092;50.874;7.024;2022-10-16T03:04:38;2.80;;;1.38;;
30888;SDS011;51092;50.874;7.024;2022-10-16T03:05:40;1.67;;;1.30;;
30888;SDS011;51092;50.874;7.024;2022-10-16T03:06:44;3.35;;;1.17;;
30888;SDS011;51092;50.874;7.024;2022-10-16T03:07:45;1.90;;;1.33;;
30888;SDS011;51092;50.874;7.024;2022-10-16T03:08:48;1.65;;;1.30;;
30888;SDS011;51092;50.874;7.024;2022-10-16T03:09:49;3.90;;;1.15;;
30888;SDS011;51092;50.874;7.024;2022-10-16T03:10:52;1.58;;;1.30;;
30888;SDS011;51092;50.874;7.024;2022-10-16T03:11:53;1.75;;;1.55;;
30888;SDS011;51092;50.874;7.024;2022-10-16T03:12:56;1.52;;;1.40;;
30888;SDS011;51092;50.874;7.024;2022-10-16T03:13:57;1.15;;;1.05;;
30888;SDS011;51092;50.874;7.024;2022-10-16T03:15:02;1.58;;;1.20;;
30888;SDS011;51092;50.874;7.024;2022-10-16T03:16:04;2.42;;;1.13;;
30888;SDS011;51092;50.874;7.024;2022-10-16T03:17:07;2.60;;;1.20;;
30888;SDS011;51092;50.874;7.024;2022-10-16T03:18:08;0.98;;;0.98;;
30888;SDS011;51092;50.874;7.024;2022-10-16T03:19:12;1.45;;;1.10;;
30888;SDS011;51092;50.874;7.024;2022-10-16T03:20:13;1.73;;;1.10;;
30888;SDS011;51092;50.874;7.024;2022-10-16T03:21:16;3.75;;;1.38;;
30888;SDS011;51092;50.874;7.024;2022-10-16T03:22:18;4.55;;;1.55;;
30888;SDS011;51092;50.874;7.024;2022-10-16T03:23:20;1.23;;;1.13;;
30888;SDS011;51092;50.874;7.024;2022-10-16T03:24:22;3.00;;;1.38;;
30888;SDS011;51092;50.874;7.024;2022-10-16T03:25:24;1.30;;;1.10;;
30888;SDS011;51092;50.874;7.024;2022-10-16T03:26:25;3.13;;;1.33;;
30888;SDS011;51092;50.874;7.024;2022-10-16T03:27:27;3.97;;;1.50;;
30888;SDS011;51092;50.874;7.024;2022-10-16T03:28:28;10.05;;;1.45;;
30888;SDS011;51092;50.874;7.024;2022-10-16T03:29:30;5.47;;;1.30;;
30888;SDS011;51092;50.874;7.024;2022-10-16T03:30:34;2.08;;;1.20;;
30888;SDS011;51092;50.874;7.024;2022-10-16T03:31:36;4.15;;;1.45;;
30888;SDS011;51092;50.874;7.024;2022-10-16T03:32:38;3.13;;;1.45;;
30888;SDS011;51092;50.874;7.024;2022-10-16T03:33:40;2.75;;;1.65;;
30888;SDS011;51092;50.874;7.024;2022-10-16T03:34:42;2.50;;;1.13;;
30888;SDS011;51092;50.874;7.024;2022-10-16T03:35:50;1.55;;;1.45;;
30888;SDS011;51092;50.874;7.024;2022-10-16T03:36:52;2.35;;;1.20;;
30888;SDS011;51092;50.874;7.024;2022-10-16T03:37:55;3.13;;;1.10;;
30888;SDS011;51092;50.874;7.024;2022-10-16T03:38:57;2.63;;;1.38;;
30888;SDS011;51092;50.874;7.024;2022-10-16T03:39:59;6.60;;;1.50;;
30888;SDS011;51092;50.874;7.024;2022-10-16T03:41:01;5.13;;;1.52;;
30888;SDS011;51092;50.874;7.024;2022-10-16T03:42:04;2.40;;;1.20;;
30888;SDS011;51092;50.874;7.024;2022-10-16T03:43:06;1.30;;;1.20;;
30888;SDS011;51092;50.874;7.024;2022-10-16T03:44:08;2.17;;;1.30;;
30888;SDS011;51092;50.874;7.024;2022-10-16T03:45:10;4.38;;;1.25;;
30888;SDS011;51092;50.874;7.024;2022-10-16T03:46:14;5.70;;;1.50;;
30888;SDS011;51092;50.874;7.024;2022-10-16T03:47:15;3.10;;;1.17;;
30888;SDS011;51092;50.874;7.024;2022-10-16T03:48:22;2.80;;;1.35;;
30888;SDS011;51092;50.874;7.024;2022-10-16T03:49:23;1.75;;;1.20;;
30888;SDS011;51092;50.874;7.024;2022-10-16T03:50:26;3.58;;;1.00;;
30888;SDS011;51092;50.874;7.024;2022-10-16T03:51:27;4.88;;;1.33;;
30888;SDS011;51092;50.874;7.024;2022-10-16T03:52:30;1.90;;;1.52;;
30888;SDS011;51092;50.874;7.024;2022-10-16T03:53:33;1.95;;;1.10;;
30888;SDS011;51092;50.874;7.024;2022-10-16T03:54:36;2.70;;;1.10;;
30888;SDS011;51092;50.874;7.024;2022-10-16T03:55:37;2.95;;;1.00;;
30888;SDS011;51092;50.874;7.024;2022-10-16T03:56:40;1.38;;;1.10;;
30888;SDS011;51092;50.874;7.024;2022-10-16T03:57:41;3.58;;;1.20;;
30888;SDS011;51092;50.874;7.024;2022-10-16T03:58:44;2.95;;;1.17;;
30888;SDS011;51092;50.874;7.024;2022-10-16T03:59:45;4.22;;;1.10;;
30888;SDS011;51092;50.874;7.024;2022-10-16T04:00:48;3.30;;;0.90;;
30888;SDS011;51092;50.874;7.024;2022-10-16T04:01:51;6.47;;;1.40;;
30888;SDS011;51092;50.874;7.024;2022-10-16T04:02:53;1.45;;;0.80;;
30888;SDS011;51092;50.874;7.024;2022-10-16T04:03:55;2.08;;;1.10;;
30888;SDS011;51092;50.874;7.024;2022-10-16T04:04:57;2.97;;;1.35;;
30888;SDS011;51092;50.874;7.024;2022-10-16T04:05:59;3.25;;;1.20;;
30888;SDS011;51092;50.874;7.024;2022-10-16T04:07:01;3.38;;;0.88;;
30888;SDS011;51092;50.874;7.024;2022-10-16T04:08:03;2.17;;;0.90;;
30888;SDS011;51092;50.874;7.024;2022-10-16T04:09:05;1.40;;;1.05;;
30888;SDS011;51092;50.874;7.024;2022-10-16T04:10:07;1.02;;;0.93;;
30888;SDS011;51092;50.874;7.024;2022-10-16T04:11:10;0.98;;;0.88;;
30888;SDS011;51092;50.874;7.024;2022-10-16T04:12:11;5.65;;;1.00;;
30888;SDS011;51092;50.874;7.024;2022-10-16T04:13:14;1.10;;;1.00;;
30888;SDS011;51092;50.874;7.024;2022-10-16T04:14:16;3.40;;;0.85;;
30888;SDS011;51092;50.874;7.024;2022-10-16T04:15:18;3.30;;;0.77;;
30888;SDS011;51092;50.874;7.024;2022-10-16T04:16:20;4.57;;;0.77;;
30888;SDS011;51092;50.874;7.024;2022-10-16T04:17:24;1.35;;;0.95;;
30888;SDS011;51092;50.874;7.024;2022-10-16T04:18:25;1.52;;;0.93;;
30888;SDS011;51092;50.874;7.024;2022-10-16T04:19:28;2.33;;;0.82;;
30888;SDS011;51092;50.874;7.024;2022-10-16T04:20:30;2.10;;;0.90;;
30888;SDS011;51092;50.874;7.024;2022-10-16T04:21:32;1.55;;;0.90;;
30888;SDS011;51092;50.874;7.024;2022-10-16T04:22:34;4.88;;;1.10;;
30888;SDS011;51092;50.874;7.024;2022-10-16T04:23:36;1.35;;;0.80;;
30888;SDS011;51092;50.874;7.024;2022-10-16T04:24:38;1.17;;;0.93;;
30888;SDS011;51092;50.874;7.024;2022-10-16T04:25:40;3.70;;;1.25;;
30888;SDS011;51092;50.874;7.024;2022-10-16T04:26:42;3.72;;;1.27;;
30888;SDS011;51092;50.874;7.024;2022-10-16T04:27:44;2.97;;;0.80;;
30888;SDS011;51092;50.874;7.024;2022-10-16T04:28:46;2.97;;;1.10;;
30888;SDS011;51092;50.874;7.024;2022-10-16T04:29:48;6.82;;;1.10;;
30888;SDS011;51092;50.874;7.024;2022-10-16T04:30:50;1.65;;;0.65;;
30888;SDS011;51092;50.874;7.024;2022-10-16T04:31:52;2.53;;;0.90;;
30888;SDS011;51092;50.874;7.024;2022-10-16T04:32:55;1.02;;;0.70;;
30888;SDS011;51092;50.874;7.024;2022-10-16T04:33:58;2.95;;;0.90;;
30888;SDS011;51092;50.874;7.024;2022-10-16T04:34:59;2.33;;;0.88;;
30888;SDS011;51092;50.874;7.024;2022-10-16T04:36:02;1.73;;;0.85;;
30888;SDS011;51092;50.874;7.024;2022-10-16T04:37:04;2.65;;;1.02;;
30888;SDS011;51092;50.874;7.024;2022-10-16T04:38:07;4.82;;;0.63;;
30888;SDS011;51092;50.874;7.024;2022-10-16T04:39:09;2.85;;;1.20;;
30888;SDS011;51092;50.874;7.024;2022-10-16T04:40:11;5.38;;;0.65;;
30888;SDS011;51092;50.874;7.024;2022-10-16T04:41:13;3.47;;;0.90;;
30888;SDS011;51092;50.874;7.024;2022-10-16T04:42:16;3.78;;;0.70;;
30888;SDS011;51092;50.874;7.024;2022-10-16T04:43:17;1.00;;;0.63;;
30888;SDS011;51092;50.874;7.024;2022-10-16T04:44:21;3.03;;;0.70;;
30888;SDS011;51092;50.874;7.024;2022-10-16T04:45:23;2.50;;;1.02;;
30888;SDS011;51092;50.874;7.024;2022-10-16T04:46:25;1.77;;;1.02;;
30888;SDS011;51092;50.874;7.024;2022-10-16T04:47:27;2.70;;;0.82;;
30888;SDS011;51092;50.874;7.024;2022-10-16T04:48:31;4.65;;;0.85;;
30888;SDS011;51092;50.874;7.024;2022-10-16T04:49:32;4.22;;;0.75;;
30888;SDS011;51092;50.874;7.024;2022-10-16T04:50:35;3.65;;;0.70;;
30888;SDS011;51092;50.874;7.024;2022-10-16T04:51:36;1.70;;;0.70;;
30888;SDS011;51092;50.874;7.024;2022-10-16T04:52:39;2.28;;;1.02;;
30888;SDS011;51092;50.874;7.024;2022-10-16T04:53:40;6.63;;;1.02;;
30888;SDS011;51092;50.874;7.024;2022-10-16T04:54:43;0.82;;;0.60;;
30888;SDS011;51092;50.874;7.024;2022-10-16T04:55:45;1.55;;;0.90;;
30888;SDS011;51092;50.874;7.024;2022-10-16T04:56:48;2.55;;;1.00;;
30888;SDS011;51092;50.874;7.024;2022-10-16T04:57:51;1.42;;;0.93;;
30888;SDS011;51092;50.874;7.024;2022-10-16T04:58:54;4.00;;;0.82;;
30888;SDS011;51092;50.874;7.024;2022-10-16T04:59:55;2.20;;;0.98;;
30888;SDS011;51092;50.874;7.024;2022-10-16T05:00:58;2.08;;;0.65;;
30888;SDS011;51092;50.874;7.024;2022-10-16T05:01:59;1.27;;;0.90;;
30888;SDS011;51092;50.874;7.024;2022-10-16T05:03:02;0.70;;;0.70;;
30888;SDS011;51092;50.874;7.024;2022-10-16T05:04:08;1.58;;;1.35;;
30888;SDS011;51092;50.874;7.024;2022-10-16T05:05:10;1.40;;;1.30;;
30888;SDS011;51092;50.874;7.024;2022-10-16T05:06:12;2.50;;;1.00;;
30888;SDS011;51092;50.874;7.024;2022-10-16T05:07:15;1.00;;;1.00;;
30888;SDS011;51092;50.874;7.024;2022-10-16T05:08:16;3.45;;;1.00;;
30888;SDS011;51092;50.874;7.024;2022-10-16T05:09:19;2.42;;;0.95;;
30888;SDS011;51092;50.874;7.024;2022-10-16T05:10:21;2.47;;;0.88;;
30888;SDS011;51092;50.874;7.024;2022-10-16T05:11:23;2.42;;;1.00;;
30888;SDS011;51092;50.874;7.024;2022-10-16T05:12:25;3.67;;;1.05;;
30888;SDS011;51092;50.874;7.024;2022-10-16T05:13:27;1.40;;;0.75;;
30888;SDS011;51092;50.874;7.024;2022-10-16T05:14:29;4.65;;;1.08;;
30888;SDS011;51092;50.874;7.024;2022-10-16T05:15:32;1.35;;;1.10;;
30888;SDS011;51092;50.874;7.024;2022-10-16T05:16:33;4.15;;;1.25;;
30888;SDS011;51092;50.874;7.024;2022-10-16T05:17:36;3.33;;;1.50;;
30888;SDS011;51092;50.874;7.024;2022-10-16T05:18:37;2.55;;;0.98;;
30888;SDS011;51092;50.874;7.024;2022-10-16T05:19:41;2.58;;;0.98;;
30888;SDS011;51092;50.874;7.024;2022-10-16T05:20:43;2.10;;;1.25;;
30888;SDS011;51092;50.874;7.024;2022-10-16T05:21:45;2.78;;;0.90;;
30888;SDS011;51092;50.874;7.024;2022-10-16T05:22:47;3.17;;;1.05;;
30888;SDS011;51092;50.874;7.024;2022-10-16T05:23:49;0.85;;;0.85;;
30888;SDS011;51092;50.874;7.024;2022-10-16T05:24:51;1.83;;;0.90;;
30888;SDS011;51092;50.874;7.024;2022-10-16T05:25:53;2.90;;;0.80;;
30888;SDS011;51092;50.874;7.024;2022-10-16T05:26:55;1.73;;;1.00;;
30888;SDS011;51092;50.874;7.024;2022-10-16T05:27:58;1.70;;;1.00;;
30888;SDS011;51092;50.874;7.024;2022-10-16T05:29:00;1.08;;;1.00;;
30888;SDS011;51092;50.874;7.024;2022-10-16T05:30:04;2.45;;;0.98;;
30888;SDS011;51092;50.874;7.024;2022-10-16T05:31:06;2.22;;;0.90;;
30888;SDS011;51092;50.874;7.024;2022-10-16T05:32:10;3.75;;;1.20;;
30888;SDS011;51092;50.874;7.024;2022-10-16T05:33:11;2.33;;;1.15;;
30888;SDS011;51092;50.874;7.024;2022-10-16T05:34:14;2.42;;;1.00;;
30888;SDS011;51092;50.874;7.024;2022-10-16T05:35:17;1.58;;;0.75;;
30888;SDS011;51092;50.874;7.024;2022-10-16T05:36:20;2.80;;;1.08;;
30888;SDS011;51092;50.874;7.024;2022-10-16T05:37:22;7.05;;;1.17;;
30888;SDS011;51092;50.874;7.024;2022-10-16T05:38:25;1.90;;;1.00;;
30888;SDS011;51092;50.874;7.024;2022-10-16T05:39:26;1.50;;;1.00;;
30888;SDS011;51092;50.874;7.024;2022-10-16T05:40:28;2.78;;;1.00;;
30888;SDS011;51092;50.874;7.024;2022-10-16T05:41:30;2.70;;;1.00;;
30888;SDS011;51092;50.874;7.024;2022-10-16T05:42:32;3.67;;;0.90;;
30888;SDS011;51092;50.874;7.024;2022-10-16T05:43:33;7.13;;;1.10;;
30888;SDS011;51092;50.874;7.024;2022-10-16T05:44:35;1.70;;;1.08;;
30888;SDS011;51092;50.874;7.024;2022-10-16T05:45:36;1.27;;;0.93;;
30888;SDS011;51092;50.874;7.024;2022-10-16T05:46:38;2.08;;;1.00;;
30888;SDS011;51092;50.874;7.024;2022-10-16T05:47:40;1.80;;;1.00;;
30888;SDS011;51092;50.874;7.024;2022-10-16T05:48:42;2.00;;;0.98;;
30888;SDS011;51092;50.874;7.024;2022-10-16T05:49:44;1.67;;;1.00;;
30888;SDS011;51092;50.874;7.024;2022-10-16T05:50:47;2.95;;;1.20;;
30888;SDS011;51092;50.874;7.024;2022-10-16T05:51:49;2.45;;;1.00;;
30888;SDS011;51092;50.874;7.024;2022-10-16T05:52:52;0.80;;;0.75;;
30888;SDS011;51092;50.874;7.024;2022-10-16T05:53:53;0.80;;;0.80;;
30888;SDS011;51092;50.874;7.024;2022-10-16T05:54:56;2.25;;;1.00;;
30888;SDS011;51092;50.874;7.024;2022-10-16T05:55:57;3.53;;;1.10;;
30888;SDS011;51092;50.874;7.024;2022-10-16T05:56:59;2.08;;;0.90;;
30888;SDS011;51092;50.874;7.024;2022-10-16T05:58:00;0.90;;;0.88;;
30888;SDS011;51092;50.874;7.024;2022-10-16T05:59:02;1.45;;;0.90;;
30888;SDS011;51092;50.874;7.024;2022-10-16T06:00:04;1.20;;;0.70;;
30888;SDS011;51092;50.874;7.024;2022-10-16T06:01:09;3.63;;;1.15;;
30888;SDS011;51092;50.874;7.024;2022-10-16T06:02:12;2.67;;;0.80;;
30888;SDS011;51092;50.874;7.024;2022-10-16T06:03:15;3.30;;;0.90;;
30888;SDS011;51092;50.874;7.024;2022-10-16T06:04:16;2.03;;;1.10;;
30888;SDS011;51092;50.874;7.024;2022-10-16T06:05:18;0.82;;;0.75;;
30888;SDS011;51092;50.874;7.024;2022-10-16T06:06:21;2.97;;;1.05;;
30888;SDS011;51092;50.874;7.024;2022-10-16T06:07:25;1.90;;;0.80;;
30888;SDS011;51092;50.874;7.024;2022-10-16T06:08:26;1.73;;;0.93;;
30888;SDS011;51092;50.874;7.024;2022-10-16T06:09:29;2.17;;;1.10;;
30888;SDS011;51092;50.874;7.024;2022-10-16T06:10:30;2.25;;;1.10;;
30888;SDS011;51092;50.874;7.024;2022-10-16T06:11:33;1.50;;;0.98;;
30888;SDS011;51092;50.874;7.024;2022-10-16T06:12:35;1.13;;;1.00;;
30888;SDS011;51092;50.874;7.024;2022-10-16T06:13:37;3.90;;;1.40;;
30888;SDS011;51092;50.874;7.024;2022-10-16T06:14:40;1.55;;;1.05;;
30888;SDS011;51092;50.874;7.024;2022-10-16T06:15:42;1.45;;;1.23;;
30888;SDS011;51092;50.874;7.024;2022-10-16T06:16:43;3.25;;;1.30;;
30888;SDS011;51092;50.874;7.024;2022-10-16T06:17:45;1.95;;;1.20;;
30888;SDS011;51092;50.874;7.024;2022-10-16T06:18:47;2.45;;;1.25;;
30888;SDS011;51092;50.874;7.024;2022-10-16T06:19:49;4.13;;;1.30;;
30888;SDS011;51092;50.874;7.024;2022-10-16T06:20:51;2.03;;;1.00;;
30888;SDS011;51092;50.874;7.024;2022-10-16T06:21:54;1.50;;;1.38;;
30888;SDS011;51092;50.874;7.024;2022-10-16T06:22:58;2.40;;;1.48;;